createdAt,value
2023-05-04T00:00:41.000Z,10.387096774193562
2023-05-04T00:01:43.000Z,10.387096774193562
2023-05-04T00:02:46.000Z,10.387096774193562
2023-05-04T00:03:48.000Z,10.387096774193562
2023-05-04T00:04:50.000Z,10.290322580645174
2023-05-04T00:05:52.000Z,10.387096774193562
2023-05-04T00:06:54.000Z,10.290322580645174
2023-05-04T00:07:56.000Z,10.290322580645174
2023-05-04T00:08:58.000Z,10.387096774193562
2023-05-04T00:10:01.000Z,10.387096774193562
2023-05-04T00:11:03.000Z,10.387096774193562
2023-05-04T00:12:05.000Z,10.387096774193562
2023-05-04T00:13:07.000Z,10.580645161290338
2023-05-04T00:14:09.000Z,10.580645161290338
2023-05-04T00:15:11.000Z,10.580645161290338
2023-05-04T00:16:13.000Z,10.677419354838726
2023-05-04T00:17:16.000Z,10.677419354838726
2023-05-04T00:18:18.000Z,10.580645161290338
2023-05-04T00:19:20.000Z,10.580645161290338
2023-05-04T00:20:22.000Z,10.677419354838726
2023-05-04T00:21:24.000Z,10.677419354838726
2023-05-04T00:22:26.000Z,10.677419354838726
2023-05-04T00:23:28.000Z,10.677419354838726
2023-05-04T00:24:31.000Z,10.580645161290338
2023-05-04T00:25:33.000Z,10.677419354838726
2023-05-04T00:26:35.000Z,10.677419354838726
2023-05-04T00:27:37.000Z,10.677419354838726
2023-05-04T00:28:39.000Z,10.580645161290338
2023-05-04T00:29:41.000Z,10.580645161290338
2023-05-04T00:30:43.000Z,10.677419354838726
2023-05-04T00:31:46.000Z,10.580645161290338
2023-05-04T00:32:48.000Z,10.677419354838726
2023-05-04T00:33:50.000Z,10.677419354838726
2023-05-04T00:34:52.000Z,10.677419354838726
2023-05-04T00:35:54.000Z,10.580645161290338
2023-05-04T00:36:56.000Z,10.677419354838726
2023-05-04T00:37:58.000Z,10.580645161290338
2023-05-04T00:39:00.000Z,10.48387096774195
2023-05-04T00:40:03.000Z,10.387096774193562
2023-05-04T00:41:05.000Z,10.290322580645174
2023-05-04T00:42:07.000Z,10.387096774193562
2023-05-04T00:43:09.000Z,10.580645161290338
2023-05-04T00:44:11.000Z,10.677419354838726
2023-05-04T00:45:13.000Z,10.580645161290338
2023-05-04T00:46:15.000Z,10.774193548387114
2023-05-04T00:47:17.000Z,10.774193548387114
2023-05-04T00:48:20.000Z,10.774193548387114
2023-05-04T00:49:22.000Z,10.774193548387114
2023-05-04T00:50:24.000Z,10.774193548387114
2023-05-04T00:51:26.000Z,10.774193548387114
2023-05-04T00:52:28.000Z,10.774193548387114
2023-05-04T00:53:30.000Z,10.774193548387114
2023-05-04T00:54:33.000Z,10.677419354838726
2023-05-04T00:55:35.000Z,10.774193548387114
2023-05-04T00:56:37.000Z,10.774193548387114
2023-05-04T00:57:39.000Z,10.870967741935502
2023-05-04T00:58:41.000Z,10.870967741935502
2023-05-04T00:59:43.000Z,10.870967741935502
2023-05-04T01:00:45.000Z,10.870967741935502
2023-05-04T01:01:47.000Z,10.870967741935502
2023-05-04T01:02:50.000Z,10.870967741935502
2023-05-04T01:03:52.000Z,10.870967741935502
2023-05-04T01:04:54.000Z,10.870967741935502
2023-05-04T01:05:56.000Z,10.96774193548389
2023-05-04T01:06:58.000Z,10.96774193548389
2023-05-04T01:08:00.000Z,10.96774193548389
2023-05-04T01:09:02.000Z,10.96774193548389
2023-05-04T01:10:04.000Z,10.96774193548389
2023-05-04T01:11:07.000Z,10.96774193548389
2023-05-04T01:12:09.000Z,11.064516129032278
2023-05-04T01:13:11.000Z,11.064516129032278
2023-05-04T01:14:13.000Z,11.064516129032278
2023-05-04T01:15:15.000Z,11.064516129032278
2023-05-04T01:16:17.000Z,11.064516129032278
2023-05-04T01:17:19.000Z,11.064516129032278
2023-05-04T01:18:21.000Z,11.161290322580665
2023-05-04T01:19:24.000Z,11.161290322580665
2023-05-04T01:20:26.000Z,11.161290322580665
2023-05-04T01:21:28.000Z,11.161290322580665
2023-05-04T01:22:30.000Z,11.161290322580665
2023-05-04T01:23:32.000Z,11.258064516129053
2023-05-04T01:24:34.000Z,11.258064516129053
2023-05-04T01:25:36.000Z,11.258064516129053
2023-05-04T01:26:39.000Z,11.258064516129053
2023-05-04T01:27:41.000Z,11.258064516129053
2023-05-04T01:28:43.000Z,11.354838709677441
2023-05-04T01:29:45.000Z,11.258064516129053
2023-05-04T01:30:47.000Z,11.258064516129053
2023-05-04T01:31:49.000Z,11.354838709677441
2023-05-04T01:32:51.000Z,11.354838709677441
2023-05-04T01:33:54.000Z,11.354838709677441
2023-05-04T01:34:56.000Z,11.45161290322583
2023-05-04T01:35:58.000Z,11.45161290322583
2023-05-04T01:37:00.000Z,11.45161290322583
2023-05-04T01:38:02.000Z,11.548387096774217
2023-05-04T01:39:04.000Z,11.645161290322605
2023-05-04T01:40:06.000Z,11.548387096774217
2023-05-04T01:41:08.000Z,11.645161290322605
2023-05-04T01:42:11.000Z,11.548387096774217
2023-05-04T01:43:13.000Z,11.645161290322605
2023-05-04T01:44:15.000Z,11.741935483870993
2023-05-04T01:45:17.000Z,11.741935483870993
2023-05-04T01:46:19.000Z,11.741935483870993
2023-05-04T01:47:21.000Z,11.935483870967769
2023-05-04T01:48:23.000Z,11.935483870967769
2023-05-04T01:49:25.000Z,12.709677419354872
2023-05-04T01:50:28.000Z,13.193548387096811
2023-05-04T01:51:30.000Z,13.67741935483875
2023-05-04T01:52:32.000Z,12.612903225806484
2023-05-04T01:53:34.000Z,12.419354838709708
2023-05-04T01:54:36.000Z,11.83870967741938
2023-05-04T01:55:38.000Z,11.741935483870993
2023-05-04T01:56:40.000Z,11.741935483870993
2023-05-04T01:57:43.000Z,11.258064516129053
2023-05-04T01:58:45.000Z,10.677419354838726
2023-05-04T01:59:47.000Z,10.00000000000001
2023-05-04T02:00:49.000Z,10.00000000000001
2023-05-04T02:01:51.000Z,9.903225806451623
2023-05-04T02:02:53.000Z,9.903225806451623
2023-05-04T02:03:55.000Z,9.903225806451623
2023-05-04T02:04:57.000Z,9.903225806451623
2023-05-04T02:06:00.000Z,9.903225806451623
2023-05-04T02:07:02.000Z,9.903225806451623
2023-05-04T02:08:04.000Z,10.00000000000001
2023-05-04T02:09:06.000Z,10.00000000000001
2023-05-04T02:10:08.000Z,9.903225806451623
2023-05-04T02:11:10.000Z,9.709677419354847
2023-05-04T02:12:12.000Z,9.709677419354847
2023-05-04T02:13:14.000Z,9.709677419354847
2023-05-04T02:14:17.000Z,9.709677419354847
2023-05-04T02:15:19.000Z,9.612903225806459
2023-05-04T02:16:21.000Z,9.516129032258071
2023-05-04T02:17:23.000Z,9.516129032258071
2023-05-04T02:18:25.000Z,9.516129032258071
2023-05-04T02:19:27.000Z,9.322580645161295
2023-05-04T02:20:29.000Z,9.322580645161295
2023-05-04T02:21:31.000Z,9.322580645161295
2023-05-04T02:22:34.000Z,9.709677419354847
2023-05-04T02:23:36.000Z,10.193548387096786
2023-05-04T02:24:38.000Z,10.387096774193562
2023-05-04T02:25:40.000Z,11.161290322580665
2023-05-04T02:26:42.000Z,10.677419354838726
2023-05-04T02:27:44.000Z,10.870967741935502
2023-05-04T02:28:46.000Z,10.870967741935502
2023-05-04T02:29:48.000Z,10.870967741935502
2023-05-04T02:30:51.000Z,10.870967741935502
2023-05-04T02:31:53.000Z,10.870967741935502
2023-05-04T02:32:55.000Z,10.870967741935502
2023-05-04T02:33:57.000Z,10.774193548387114
2023-05-04T02:34:59.000Z,10.774193548387114
2023-05-04T02:36:01.000Z,10.96774193548389
2023-05-04T02:37:03.000Z,10.96774193548389
2023-05-04T02:38:05.000Z,11.258064516129053
2023-05-04T02:39:08.000Z,10.96774193548389
2023-05-04T02:40:10.000Z,11.064516129032278
2023-05-04T02:41:12.000Z,10.774193548387114
2023-05-04T02:42:14.000Z,10.677419354838726
2023-05-04T02:43:16.000Z,10.48387096774195
2023-05-04T02:44:18.000Z,10.387096774193562
2023-05-04T02:45:20.000Z,10.290322580645174
2023-05-04T02:46:22.000Z,10.387096774193562
2023-05-04T02:47:24.000Z,11.161290322580665
2023-05-04T02:48:27.000Z,11.064516129032278
2023-05-04T02:49:29.000Z,11.064516129032278
2023-05-04T02:50:31.000Z,11.161290322580665
2023-05-04T02:51:33.000Z,10.870967741935502
2023-05-04T02:52:35.000Z,10.96774193548389
2023-05-04T02:53:37.000Z,10.870967741935502
2023-05-04T02:54:39.000Z,10.870967741935502
2023-05-04T02:55:41.000Z,10.96774193548389
2023-05-04T02:56:44.000Z,10.870967741935502
2023-05-04T02:57:46.000Z,10.870967741935502
2023-05-04T02:58:48.000Z,10.870967741935502
2023-05-04T02:59:50.000Z,10.774193548387114
2023-05-04T03:00:52.000Z,10.677419354838726
2023-05-04T03:01:54.000Z,10.774193548387114
2023-05-04T03:02:56.000Z,10.870967741935502
2023-05-04T03:03:59.000Z,10.774193548387114
2023-05-04T03:05:01.000Z,10.774193548387114
2023-05-04T03:06:03.000Z,11.064516129032278
2023-05-04T03:07:05.000Z,10.870967741935502
2023-05-04T03:08:07.000Z,10.96774193548389
2023-05-04T03:09:09.000Z,10.774193548387114
2023-05-04T03:10:11.000Z,10.774193548387114
2023-05-04T03:11:14.000Z,11.548387096774217
2023-05-04T03:12:16.000Z,11.064516129032278
2023-05-04T03:13:18.000Z,11.064516129032278
2023-05-04T03:14:20.000Z,10.96774193548389
2023-05-04T03:15:22.000Z,11.161290322580665
2023-05-04T03:16:24.000Z,11.741935483870993
2023-05-04T03:17:26.000Z,10.774193548387114
2023-05-04T03:18:28.000Z,10.48387096774195
2023-05-04T03:19:31.000Z,10.290322580645174
2023-05-04T03:20:33.000Z,10.387096774193562
2023-05-04T03:21:35.000Z,10.48387096774195
2023-05-04T03:22:37.000Z,10.48387096774195
2023-05-04T03:23:39.000Z,10.870967741935502
2023-05-04T03:24:41.000Z,11.064516129032278
2023-05-04T03:25:43.000Z,11.064516129032278
2023-05-04T03:26:46.000Z,11.161290322580665
2023-05-04T03:27:48.000Z,11.645161290322605
2023-05-04T03:28:50.000Z,10.774193548387114
2023-05-04T03:29:52.000Z,10.580645161290338
2023-05-04T03:30:54.000Z,10.774193548387114
2023-05-04T03:31:56.000Z,11.258064516129053
2023-05-04T03:32:58.000Z,10.48387096774195
2023-05-04T03:34:01.000Z,10.193548387096786
2023-05-04T03:35:03.000Z,10.290322580645174
2023-05-04T03:36:05.000Z,10.290322580645174
2023-05-04T03:37:07.000Z,10.096774193548399
2023-05-04T03:38:09.000Z,10.193548387096786
2023-05-04T03:39:11.000Z,10.193548387096786
2023-05-04T03:40:14.000Z,10.00000000000001
2023-05-04T03:41:16.000Z,10.00000000000001
2023-05-04T03:42:18.000Z,10.096774193548399
2023-05-04T03:43:20.000Z,10.096774193548399
2023-05-04T03:44:22.000Z,10.096774193548399
2023-05-04T03:45:24.000Z,10.096774193548399
2023-05-04T03:46:26.000Z,10.096774193548399
2023-05-04T03:47:28.000Z,10.193548387096786
2023-05-04T03:48:31.000Z,10.290322580645174
2023-05-04T03:49:33.000Z,10.387096774193562
2023-05-04T03:50:35.000Z,10.387096774193562
2023-05-04T03:51:37.000Z,10.387096774193562
2023-05-04T03:52:39.000Z,11.064516129032278
2023-05-04T03:53:41.000Z,10.96774193548389
2023-05-04T03:54:43.000Z,10.580645161290338
2023-05-04T03:55:45.000Z,10.870967741935502
2023-05-04T03:56:48.000Z,10.870967741935502
2023-05-04T03:57:50.000Z,11.064516129032278
2023-05-04T03:58:52.000Z,10.580645161290338
2023-05-04T03:59:54.000Z,10.580645161290338
2023-05-04T04:00:56.000Z,10.48387096774195
2023-05-04T04:01:58.000Z,10.580645161290338
2023-05-04T04:03:00.000Z,10.580645161290338
2023-05-04T04:04:03.000Z,10.580645161290338
2023-05-04T04:05:05.000Z,10.580645161290338
2023-05-04T04:06:07.000Z,10.580645161290338
2023-05-04T04:07:09.000Z,10.677419354838726
2023-05-04T04:08:11.000Z,10.677419354838726
2023-05-04T04:09:13.000Z,10.774193548387114
2023-05-04T04:10:15.000Z,10.96774193548389
2023-05-04T04:11:17.000Z,11.064516129032278
2023-05-04T04:12:20.000Z,10.96774193548389
2023-05-04T04:13:22.000Z,10.96774193548389
2023-05-04T04:14:24.000Z,11.064516129032278
2023-05-04T04:15:26.000Z,11.354838709677441
2023-05-04T04:16:28.000Z,11.258064516129053
2023-05-04T04:17:30.000Z,11.935483870967769
2023-05-04T04:18:32.000Z,11.45161290322583
2023-05-04T04:19:35.000Z,11.354838709677441
2023-05-04T04:20:37.000Z,11.45161290322583
2023-05-04T04:21:39.000Z,11.161290322580665
2023-05-04T04:22:41.000Z,11.064516129032278
2023-05-04T04:23:43.000Z,10.96774193548389
2023-05-04T04:24:45.000Z,10.96774193548389
2023-05-04T04:25:47.000Z,10.774193548387114
2023-05-04T04:26:50.000Z,10.677419354838726
2023-05-04T04:27:52.000Z,10.677419354838726
2023-05-04T04:28:54.000Z,10.580645161290338
2023-05-04T04:29:56.000Z,10.774193548387114
2023-05-04T04:30:58.000Z,10.677419354838726
2023-05-04T04:32:00.000Z,10.580645161290338
2023-05-04T04:33:02.000Z,10.580645161290338
2023-05-04T04:34:05.000Z,10.580645161290338
2023-05-04T04:35:07.000Z,10.48387096774195
2023-05-04T04:36:09.000Z,10.48387096774195
2023-05-04T04:37:11.000Z,10.48387096774195
2023-05-04T04:38:13.000Z,10.387096774193562
2023-05-04T04:39:15.000Z,10.387096774193562
2023-05-04T04:40:17.000Z,10.387096774193562
2023-05-04T04:41:20.000Z,10.387096774193562
2023-05-04T04:42:22.000Z,10.387096774193562
2023-05-04T04:43:24.000Z,10.48387096774195
2023-05-04T04:44:26.000Z,10.677419354838726
2023-05-04T04:45:28.000Z,10.870967741935502
2023-05-04T04:46:30.000Z,10.96774193548389
2023-05-04T04:47:32.000Z,10.870967741935502
2023-05-04T04:48:34.000Z,11.161290322580665
2023-05-04T04:49:36.000Z,10.96774193548389
2023-05-04T04:50:39.000Z,11.064516129032278
2023-05-04T04:51:41.000Z,10.48387096774195
2023-05-04T04:52:43.000Z,10.387096774193562
2023-05-04T04:53:45.000Z,10.290322580645174
2023-05-04T04:54:47.000Z,10.290322580645174
2023-05-04T04:55:49.000Z,10.290322580645174
2023-05-04T04:56:51.000Z,10.193548387096786
2023-05-04T04:57:54.000Z,10.193548387096786
2023-05-04T04:58:56.000Z,10.193548387096786
2023-05-04T04:59:58.000Z,10.096774193548399
2023-05-04T05:01:00.000Z,10.193548387096786
2023-05-04T05:02:02.000Z,10.193548387096786
2023-05-04T05:03:04.000Z,10.00000000000001
2023-05-04T05:04:06.000Z,10.00000000000001
2023-05-04T05:05:08.000Z,10.00000000000001
2023-05-04T05:06:11.000Z,10.00000000000001
2023-05-04T05:07:13.000Z,10.00000000000001
2023-05-04T05:08:15.000Z,10.00000000000001
2023-05-04T05:09:17.000Z,10.00000000000001
2023-05-04T05:10:19.000Z,10.00000000000001
2023-05-04T05:11:21.000Z,10.00000000000001
2023-05-04T05:12:23.000Z,9.903225806451623
2023-05-04T05:13:26.000Z,9.903225806451623
2023-05-04T05:14:28.000Z,9.903225806451623
2023-05-04T05:15:30.000Z,9.903225806451623
2023-05-04T05:16:32.000Z,9.903225806451623
2023-05-04T05:17:34.000Z,9.903225806451623
2023-05-04T05:18:36.000Z,10.00000000000001
2023-05-04T05:19:38.000Z,10.00000000000001
2023-05-04T05:20:40.000Z,9.903225806451623
2023-05-04T05:21:43.000Z,9.903225806451623
2023-05-04T05:22:45.000Z,9.903225806451623
2023-05-04T05:23:47.000Z,9.806451612903235
2023-05-04T05:24:49.000Z,9.903225806451623
2023-05-04T05:25:51.000Z,9.806451612903235
2023-05-04T05:26:53.000Z,9.806451612903235
2023-05-04T05:27:55.000Z,9.806451612903235
2023-05-04T05:28:58.000Z,9.806451612903235
2023-05-04T05:30:00.000Z,9.709677419354847
2023-05-04T05:31:02.000Z,9.709677419354847
2023-05-04T05:32:04.000Z,9.709677419354847
2023-05-04T05:33:06.000Z,9.612903225806459
2023-05-04T05:34:08.000Z,9.612903225806459
2023-05-04T05:35:10.000Z,9.709677419354847
2023-05-04T05:36:13.000Z,9.709677419354847
2023-05-04T05:37:15.000Z,9.612903225806459
2023-05-04T05:38:17.000Z,9.612903225806459
2023-05-04T05:39:19.000Z,9.612903225806459
2023-05-04T05:40:21.000Z,9.612903225806459
2023-05-04T05:41:23.000Z,9.612903225806459
2023-05-04T05:42:25.000Z,9.612903225806459
2023-05-04T05:43:28.000Z,9.516129032258071
2023-05-04T05:44:30.000Z,9.419354838709683
2023-05-04T05:45:32.000Z,9.419354838709683
2023-05-04T05:46:34.000Z,9.419354838709683
2023-05-04T05:47:36.000Z,9.419354838709683
2023-05-04T05:48:38.000Z,9.419354838709683
2023-05-04T05:49:40.000Z,9.419354838709683
2023-05-04T05:50:43.000Z,9.419354838709683
2023-05-04T05:51:45.000Z,9.419354838709683
2023-05-04T05:52:47.000Z,9.419354838709683
2023-05-04T05:53:49.000Z,9.419354838709683
2023-05-04T05:54:51.000Z,9.419354838709683
2023-05-04T05:55:53.000Z,9.419354838709683
2023-05-04T05:56:55.000Z,9.419354838709683
2023-05-04T05:57:58.000Z,9.419354838709683
2023-05-04T05:59:00.000Z,9.419354838709683
2023-05-04T06:00:02.000Z,9.419354838709683
2023-05-04T06:01:04.000Z,9.419354838709683
2023-05-04T06:02:06.000Z,9.516129032258071
2023-05-04T06:03:08.000Z,9.419354838709683
2023-05-04T06:04:10.000Z,9.516129032258071
2023-05-04T06:05:12.000Z,9.516129032258071
2023-05-04T06:06:15.000Z,9.516129032258071
2023-05-04T06:07:17.000Z,9.516129032258071
2023-05-04T06:08:19.000Z,9.516129032258071
2023-05-04T06:09:21.000Z,9.516129032258071
2023-05-04T06:10:23.000Z,9.516129032258071
2023-05-04T06:11:25.000Z,9.516129032258071
2023-05-04T06:12:27.000Z,9.516129032258071
2023-05-04T06:13:29.000Z,9.516129032258071
2023-05-04T06:14:32.000Z,9.516129032258071
2023-05-04T06:15:34.000Z,9.516129032258071
2023-05-04T06:16:36.000Z,9.516129032258071
2023-05-04T06:17:38.000Z,9.516129032258071
2023-05-04T06:18:40.000Z,9.516129032258071
2023-05-04T06:19:42.000Z,9.516129032258071
2023-05-04T06:20:44.000Z,9.516129032258071
2023-05-04T06:21:46.000Z,9.516129032258071
2023-05-04T06:22:49.000Z,9.516129032258071
2023-05-04T06:23:51.000Z,9.516129032258071
2023-05-04T06:24:53.000Z,9.516129032258071
2023-05-04T06:25:55.000Z,9.419354838709683
2023-05-04T06:26:57.000Z,9.516129032258071
2023-05-04T06:27:59.000Z,9.516129032258071
2023-05-04T06:29:02.000Z,9.419354838709683
2023-05-04T06:30:04.000Z,9.516129032258071
2023-05-04T06:31:06.000Z,9.516129032258071
2023-05-04T06:32:08.000Z,9.516129032258071
2023-05-04T06:33:10.000Z,9.516129032258071
2023-05-04T06:34:12.000Z,9.516129032258071
2023-05-04T06:35:14.000Z,9.516129032258071
2023-05-04T06:36:16.000Z,9.516129032258071
2023-05-04T06:37:19.000Z,9.516129032258071
2023-05-04T06:38:21.000Z,9.516129032258071
2023-05-04T06:39:23.000Z,9.516129032258071
2023-05-04T06:40:25.000Z,9.516129032258071
2023-05-04T06:41:27.000Z,9.516129032258071
2023-05-04T06:42:29.000Z,9.516129032258071
2023-05-04T06:43:31.000Z,9.516129032258071
2023-05-04T06:44:33.000Z,9.612903225806459
2023-05-04T06:45:36.000Z,9.612903225806459
2023-05-04T06:46:38.000Z,9.516129032258071
2023-05-04T06:47:40.000Z,9.516129032258071
2023-05-04T06:48:42.000Z,9.516129032258071
2023-05-04T06:49:44.000Z,9.516129032258071
2023-05-04T06:50:46.000Z,9.612903225806459
2023-05-04T06:51:48.000Z,9.612903225806459
2023-05-04T06:52:51.000Z,9.709677419354847
2023-05-04T06:53:53.000Z,9.709677419354847
2023-05-04T06:54:55.000Z,9.806451612903235
2023-05-04T06:55:57.000Z,9.806451612903235
2023-05-04T06:56:59.000Z,9.806451612903235
2023-05-04T06:58:01.000Z,9.806451612903235
2023-05-04T06:59:03.000Z,9.903225806451623
2023-05-04T07:00:06.000Z,9.903225806451623
2023-05-04T07:01:08.000Z,9.903225806451623
2023-05-04T07:02:10.000Z,9.903225806451623
2023-05-04T07:03:12.000Z,10.00000000000001
2023-05-04T07:04:14.000Z,10.00000000000001
2023-05-04T07:05:16.000Z,10.00000000000001
2023-05-04T07:06:18.000Z,10.096774193548399
2023-05-04T07:07:20.000Z,10.096774193548399
2023-05-04T07:08:23.000Z,10.096774193548399
2023-05-04T07:09:25.000Z,10.00000000000001
2023-05-04T07:10:27.000Z,10.096774193548399
2023-05-04T07:11:29.000Z,10.00000000000001
2023-05-04T07:12:31.000Z,10.096774193548399
2023-05-04T07:13:33.000Z,10.096774193548399
2023-05-04T07:14:35.000Z,10.096774193548399
2023-05-04T07:15:38.000Z,10.193548387096786
2023-05-04T07:16:40.000Z,10.774193548387114
2023-05-04T07:17:42.000Z,11.354838709677441
2023-05-04T07:18:44.000Z,11.161290322580665
2023-05-04T07:19:46.000Z,9.903225806451623
2023-05-04T07:20:48.000Z,9.806451612903235
2023-05-04T07:21:50.000Z,9.806451612903235
2023-05-04T07:22:53.000Z,9.709677419354847
2023-05-04T07:23:55.000Z,9.709677419354847
2023-05-04T07:24:57.000Z,9.709677419354847
2023-05-04T07:25:59.000Z,9.612903225806459
2023-05-04T07:27:01.000Z,9.612903225806459
2023-05-04T07:28:03.000Z,9.612903225806459
2023-05-04T07:29:05.000Z,9.612903225806459
2023-05-04T07:30:07.000Z,9.709677419354847
2023-05-04T07:31:10.000Z,9.709677419354847
2023-05-04T07:32:12.000Z,9.709677419354847
2023-05-04T07:33:14.000Z,9.709677419354847
2023-05-04T07:34:16.000Z,9.612903225806459
2023-05-04T07:35:18.000Z,9.516129032258071
2023-05-04T07:36:20.000Z,9.612903225806459
2023-05-04T07:37:22.000Z,9.612903225806459
2023-05-04T07:38:25.000Z,9.612903225806459
2023-05-04T07:39:27.000Z,9.612903225806459
2023-05-04T07:40:29.000Z,9.516129032258071
2023-05-04T07:41:31.000Z,9.516129032258071
2023-05-04T07:42:33.000Z,9.516129032258071
2023-05-04T07:43:35.000Z,9.516129032258071
2023-05-04T07:44:37.000Z,9.419354838709683
2023-05-04T07:45:40.000Z,9.419354838709683
2023-05-04T07:46:42.000Z,9.516129032258071
2023-05-04T07:47:44.000Z,9.516129032258071
2023-05-04T07:48:46.000Z,9.419354838709683
2023-05-04T07:49:48.000Z,9.419354838709683
2023-05-04T07:50:50.000Z,9.419354838709683
2023-05-04T07:51:52.000Z,9.419354838709683
2023-05-04T07:52:55.000Z,9.419354838709683
2023-05-04T07:53:57.000Z,9.419354838709683
2023-05-04T07:54:59.000Z,9.419354838709683
2023-05-04T07:56:01.000Z,9.419354838709683
2023-05-04T07:57:03.000Z,9.419354838709683
2023-05-04T07:58:05.000Z,9.419354838709683
2023-05-04T07:59:07.000Z,9.419354838709683
2023-05-04T08:00:09.000Z,9.419354838709683
2023-05-04T08:01:12.000Z,9.419354838709683
2023-05-04T08:02:14.000Z,9.419354838709683
2023-05-04T08:03:16.000Z,9.516129032258071
2023-05-04T08:04:18.000Z,9.612903225806459
2023-05-04T08:05:20.000Z,9.709677419354847
2023-05-04T08:06:22.000Z,9.709677419354847
2023-05-04T08:07:24.000Z,9.806451612903235
2023-05-04T08:08:26.000Z,9.806451612903235
2023-05-04T08:09:29.000Z,9.903225806451623
2023-05-04T08:10:31.000Z,9.806451612903235
2023-05-04T08:11:33.000Z,9.806451612903235
2023-05-04T08:12:35.000Z,9.806451612903235
2023-05-04T08:13:37.000Z,9.806451612903235
2023-05-04T08:14:39.000Z,9.903225806451623
2023-05-04T08:15:41.000Z,9.806451612903235
2023-05-04T08:16:43.000Z,9.903225806451623
2023-05-04T08:17:46.000Z,10.096774193548399
2023-05-04T08:18:48.000Z,10.096774193548399
2023-05-04T08:19:50.000Z,10.193548387096786
2023-05-04T08:20:52.000Z,12.612903225806484
2023-05-04T08:21:54.000Z,13.580645161290363
2023-05-04T08:22:56.000Z,10.48387096774195
2023-05-04T08:23:58.000Z,9.225806451612907
2023-05-04T08:25:01.000Z,9.612903225806459
2023-05-04T08:26:03.000Z,10.193548387096786
2023-05-04T08:27:05.000Z,13.096774193548423
2023-05-04T08:28:07.000Z,11.258064516129053
2023-05-04T08:29:09.000Z,11.258064516129053
2023-05-04T08:30:11.000Z,10.677419354838726
2023-05-04T08:31:13.000Z,10.00000000000001
2023-05-04T08:32:16.000Z,9.806451612903235
2023-05-04T08:33:18.000Z,9.612903225806459
2023-05-04T08:34:20.000Z,9.612903225806459
2023-05-04T08:35:22.000Z,8.838709677419356
2023-05-04T08:36:24.000Z,8.741935483870968
2023-05-04T08:37:26.000Z,8.741935483870968
2023-05-04T08:38:28.000Z,8.741935483870968
2023-05-04T08:39:31.000Z,8.741935483870968
2023-05-04T08:40:33.000Z,8.741935483870968
2023-05-04T08:41:35.000Z,8.741935483870968
2023-05-04T08:42:37.000Z,8.741935483870968
2023-05-04T08:43:39.000Z,8.741935483870968
2023-05-04T08:44:41.000Z,8.741935483870968
2023-05-04T08:45:43.000Z,8.838709677419356
2023-05-04T08:46:45.000Z,8.838709677419356
2023-05-04T08:47:48.000Z,8.838709677419356
2023-05-04T08:48:50.000Z,8.838709677419356
2023-05-04T08:49:52.000Z,8.838709677419356
2023-05-04T08:50:54.000Z,8.838709677419356
2023-05-04T08:51:56.000Z,8.838709677419356
2023-05-04T08:52:58.000Z,8.838709677419356
2023-05-04T08:54:00.000Z,8.838709677419356
2023-05-04T08:55:02.000Z,8.838709677419356
2023-05-04T08:56:05.000Z,8.935483870967744
2023-05-04T08:57:07.000Z,8.935483870967744
2023-05-04T08:58:09.000Z,9.032258064516132
2023-05-04T08:59:11.000Z,9.032258064516132
2023-05-04T09:00:13.000Z,8.935483870967744
2023-05-04T09:01:15.000Z,9.032258064516132
2023-05-04T09:02:17.000Z,9.032258064516132
2023-05-04T09:03:20.000Z,9.032258064516132
2023-05-04T09:04:22.000Z,9.032258064516132
2023-05-04T09:05:24.000Z,9.12903225806452
2023-05-04T09:06:26.000Z,9.032258064516132
2023-05-04T09:07:28.000Z,9.12903225806452
2023-05-04T09:08:30.000Z,9.12903225806452
2023-05-04T09:09:32.000Z,9.12903225806452
2023-05-04T09:10:34.000Z,9.12903225806452
2023-05-04T09:11:37.000Z,9.12903225806452
2023-05-04T09:12:39.000Z,9.225806451612907
2023-05-04T09:13:41.000Z,9.322580645161295
2023-05-04T09:14:43.000Z,9.419354838709683
2023-05-04T09:15:45.000Z,9.419354838709683
2023-05-04T09:16:47.000Z,9.806451612903235
2023-05-04T09:17:49.000Z,9.709677419354847
2023-05-04T09:18:51.000Z,9.322580645161295
2023-05-04T09:19:54.000Z,9.419354838709683
2023-05-04T09:20:56.000Z,9.322580645161295
2023-05-04T09:21:58.000Z,9.419354838709683
2023-05-04T09:23:00.000Z,9.516129032258071
2023-05-04T09:24:02.000Z,9.709677419354847
2023-05-04T09:25:04.000Z,9.516129032258071
2023-05-04T09:26:06.000Z,9.516129032258071
2023-05-04T09:27:08.000Z,9.419354838709683
2023-05-04T09:28:11.000Z,9.612903225806459
2023-05-04T09:29:13.000Z,10.096774193548399
2023-05-04T09:30:15.000Z,10.193548387096786
2023-05-04T09:31:17.000Z,10.48387096774195